Time;durP1;ratioP1;P1;durP2;ratioP2;P2;SDS_P1;SDS_P2;PMS_P1;PMS_P2;Temp;Humidity;BMP_temperature;BMP_pressure;BME280_temperature;BME280_humidity;BME280_pressure;Samples;Min_cycle;Max_cycle;Signal;HPM_P1;HPM_P2
2022/11/27 00:00:20;;;;;;;157.02;115.13;;;;;;;;;;5106046;27;20062;-75
2022/11/27 00:02:45;;;;;;;182.68;133.93;;;;;;;;;;5074668;28;20033;-75
2022/11/27 00:05:11;;;;;;;178.93;127.93;;;;;;;;;;5106783;27;20041;-74
2022/11/27 00:07:36;;;;;;;196.52;143.93;;;;;;;;;;5090339;27;20027;-75
2022/11/27 00:10:02;;;;;;;195.40;142.80;;;;;;;;;;5107968;27;20776;-73
2022/11/27 00:12:27;;;;;;;200.15;144.13;;;;;;;;;;5097878;27;20429;-78
2022/11/27 00:14:52;;;;;;;264.75;190.30;;;;;;;;;;5095550;27;20020;-76
2022/11/27 00:17:18;;;;;;;250.07;186.18;;;;;;;;;;5092530;27;20075;-75
2022/11/27 00:19:43;;;;;;;276.13;195.98;;;;;;;;;;5100610;27;20331;-78
2022/11/27 00:22:08;;;;;;;281.52;200.32;;;;;;;;;;5100691;27;20066;-75
2022/11/27 00:24:34;;;;;;;260.25;183.30;;;;;;;;;;5100239;27;20061;-77
2022/11/27 00:26:59;;;;;;;209.07;156.85;;;;;;;;;;5109112;27;20027;-74
2022/11/27 00:29:27;;;;;;;217.88;161.48;;;;;;;;;;5109411;27;20023;-75
2022/11/27 00:31:53;;;;;;;207.10;145.30;;;;;;;;;;5102572;27;20023;-78
2022/11/27 00:34:18;;;;;;;194.80;141.02;;;;;;;;;;5098828;27;20128;-75
2022/11/27 00:36:44;;;;;;;177.07;128.10;;;;;;;;;;5109004;27;20059;-75
2022/11/27 00:39:09;;;;;;;209.77;150.93;;;;;;;;;;5107511;27;20024;-76
2022/11/27 00:41:34;;;;;;;195.52;140.13;;;;;;;;;;5108358;27;20466;-75
2022/11/27 00:44:00;;;;;;;180.13;129.88;;;;;;;;;;5107282;27;20034;-75
2022/11/27 00:46:27;;;;;;;168.20;127.72;;;;;;;;;;5104352;27;20435;-75
2022/11/27 00:48:52;;;;;;;169.23;125.95;;;;;;;;;;5094565;27;20353;-76
2022/11/27 00:51:19;;;;;;;159.07;121.25;;;;;;;;;;5104990;27;20045;-74
2022/11/27 00:53:45;;;;;;;142.07;108.70;;;;;;;;;;5104828;27;20106;-74
2022/11/27 00:56:20;;;;;;;133.07;105.93;;;;;;;;;;5098458;27;20114;-74
2022/11/27 00:58:46;;;;;;;156.65;117.90;;;;;;;;;;5100376;27;20461;-74
2022/11/27 01:01:18;;;;;;;215.77;139.82;;;;;;;;;;5103475;27;20031;-75
2022/11/27 01:03:44;;;;;;;253.65;180.80;;;;;;;;;;5093197;27;20031;-75
2022/11/27 01:06:10;;;;;;;318.08;239.00;;;;;;;;;;5097512;27;20108;-73
2022/11/27 01:08:35;;;;;;;216.60;163.70;;;;;;;;;;5102336;27;20032;-75
2022/11/27 01:11:01;;;;;;;219.63;166.75;;;;;;;;;;5104489;27;20340;-74
2022/11/27 01:13:27;;;;;;;205.63;154.40;;;;;;;;;;5106304;27;20405;-76
2022/11/27 01:16:06;;;;;;;189.00;144.07;;;;;;;;;;5098858;27;20020;-75
2022/11/27 01:18:32;;;;;;;185.63;136.27;;;;;;;;;;5091061;27;20354;-74
2022/11/27 01:20:58;;;;;;;192.20;140.50;;;;;;;;;;5104574;27;20043;-74
2022/11/27 01:23:23;;;;;;;188.48;140.35;;;;;;;;;;5107250;27;20096;-77
2022/11/27 01:25:48;;;;;;;218.77;169.05;;;;;;;;;;5098397;27;20026;-73
2022/11/27 01:28:15;;;;;;;157.65;119.70;;;;;;;;;;5100032;27;20027;-72
2022/11/27 01:30:40;;;;;;;155.10;121.20;;;;;;;;;;5104178;27;20504;-73
2022/11/27 01:33:05;;;;;;;136.50;105.60;;;;;;;;;;5092570;27;20015;-74
2022/11/27 01:35:31;;;;;;;142.32;108.30;;;;;;;;;;5100815;27;20023;-74
2022/11/27 01:37:56;;;;;;;138.75;107.75;;;;;;;;;;5096531;27;20415;-74
2022/11/27 01:40:22;;;;;;;158.60;120.07;;;;;;;;;;5103405;27;20032;-73
2022/11/27 01:42:47;;;;;;;140.38;108.57;;;;;;;;;;5104602;27;20958;-74
2022/11/27 01:45:16;;;;;;;133.90;102.43;;;;;;;;;;5101000;27;20061;-73
2022/11/27 01:47:44;;;;;;;129.55;100.93;;;;;;;;;;5096565;27;20106;-73
2022/11/27 01:50:12;;;;;;;133.73;105.90;;;;;;;;;;5096678;27;20028;-79
2022/11/27 01:52:39;;;;;;;128.15;99.80;;;;;;;;;;5097410;27;20027;-76
2022/11/27 01:55:05;;;;;;;117.35;90.30;;;;;;;;;;5094694;27;20024;-74
2022/11/27 01:57:34;;;;;;;124.32;93.72;;;;;;;;;;5104246;27;20454;-74
2022/11/27 02:00:00;;;;;;;147.52;115.57;;;;;;;;;;5106982;27;20020;-75
2022/11/27 02:02:26;;;;;;;190.50;142.18;;;;;;;;;;5085882;28;20042;-75
2022/11/27 02:04:52;;;;;;;203.77;153.23;;;;;;;;;;5104505;27;20438;-75
2022/11/27 02:07:17;;;;;;;153.98;116.10;;;;;;;;;;5095005;27;20028;-76
2022/11/27 02:09:43;;;;;;;210.02;150.85;;;;;;;;;;5102891;28;20032;-74
2022/11/27 02:12:08;;;;;;;176.45;127.57;;;;;;;;;;5104082;27;20024;-76
2022/11/27 02:14:54;;;;;;;151.15;109.35;;;;;;;;;;5103001;28;20052;-75
2022/11/27 02:17:38;;;;;;;134.73;95.93;;;;;;;;;;5091906;28;20475;-74
2022/11/27 02:20:06;;;;;;;122.22;89.30;;;;;;;;;;5092979;27;20059;-75
2022/11/27 02:22:37;;;;;;;108.55;76.00;;;;;;;;;;5085753;28;20172;-73
2022/11/27 02:25:09;;;;;;;117.07;86.75;;;;;;;;;;5083460;28;20016;-73
2022/11/27 02:27:40;;;;;;;128.60;94.55;;;;;;;;;;5093589;28;20031;-74
2022/11/27 02:30:06;;;;;;;101.25;71.90;;;;;;;;;;5104323;28;20019;-73
2022/11/27 02:32:46;;;;;;;94.57;66.32;;;;;;;;;;5085110;28;20431;-73
2022/11/27 02:35:21;;;;;;;97.28;67.72;;;;;;;;;;5084888;28;20111;-75
2022/11/27 02:37:48;;;;;;;109.90;79.63;;;;;;;;;;5105551;28;20035;-74
2022/11/27 02:40:20;;;;;;;98.68;72.97;;;;;;;;;;5100338;28;20465;-75
2022/11/27 02:42:46;;;;;;;59.42;48.63;;;;;;;;;;5076140;28;20032;-73
2022/11/27 02:45:12;;;;;;;52.95;41.95;;;;;;;;;;5083568;28;20035;-75
2022/11/27 02:47:39;;;;;;;64.80;49.05;;;;;;;;;;5104052;28;20024;-77
2022/11/27 02:50:07;;;;;;;79.75;56.45;;;;;;;;;;5083820;28;20027;-74
2022/11/27 02:52:33;;;;;;;81.93;58.75;;;;;;;;;;5103006;28;20054;-73
2022/11/27 02:55:01;;;;;;;73.22;56.05;;;;;;;;;;5104854;28;20934;-74
2022/11/27 02:57:28;;;;;;;77.30;56.47;;;;;;;;;;5091494;28;20020;-74
2022/11/27 02:59:54;;;;;;;73.68;53.67;;;;;;;;;;5103370;28;20032;-76
2022/11/27 03:02:23;;;;;;;63.63;49.35;;;;;;;;;;5084533;28;20035;-76
2022/11/27 03:04:52;;;;;;;60.90;46.75;;;;;;;;;;5096847;27;20030;-77
2022/11/27 03:07:44;;;;;;;61.92;49.10;;;;;;;;;;5109306;27;20027;-73
2022/11/27 03:10:23;;;;;;;55.78;44.95;;;;;;;;;;5085645;27;20354;-74
2022/11/27 03:12:48;;;;;;;50.05;41.25;;;;;;;;;;5107719;27;20842;-72
2022/11/27 03:15:14;;;;;;;51.67;42.10;;;;;;;;;;5108117;27;20019;-73
2022/11/27 03:17:39;;;;;;;54.95;43.25;;;;;;;;;;5109449;27;20046;-74
2022/11/27 03:20:08;;;;;;;57.53;46.67;;;;;;;;;;5109401;27;20135;-72
2022/11/27 03:22:33;;;;;;;58.25;47.53;;;;;;;;;;5100992;27;20027;-73
2022/11/27 03:24:58;;;;;;;61.97;48.67;;;;;;;;;;5102334;27;20043;-72
2022/11/27 03:27:28;;;;;;;59.42;46.55;;;;;;;;;;5105711;27;20015;-72
2022/11/27 03:29:55;;;;;;;58.00;44.15;;;;;;;;;;5089012;28;20424;-74
2022/11/27 03:32:20;;;;;;;66.15;53.38;;;;;;;;;;5104390;27;20501;-73
2022/11/27 03:34:46;;;;;;;50.92;43.08;;;;;;;;;;5108632;27;20066;-74
2022/11/27 03:37:12;;;;;;;55.35;44.40;;;;;;;;;;5106207;27;20019;-73
2022/11/27 03:39:37;;;;;;;64.13;50.38;;;;;;;;;;5107907;27;20035;-73
2022/11/27 03:42:03;;;;;;;81.30;55.75;;;;;;;;;;5087510;28;20039;-75
2022/11/27 03:44:35;;;;;;;86.38;61.30;;;;;;;;;;5106660;27;20432;-73
2022/11/27 03:47:30;;;;;;;92.65;66.63;;;;;;;;;;5107018;27;20055;-75
2022/11/27 03:50:13;;;;;;;74.10;56.33;;;;;;;;;;5006769;28;20038;-73
2022/11/27 03:52:41;;;;;;;82.22;55.80;;;;;;;;;;5004933;28;20100;-74
2022/11/27 03:55:09;;;;;;;94.45;60.78;;;;;;;;;;4988388;28;20038;-76
2022/11/27 03:57:53;;;;;;;90.32;60.20;;;;;;;;;;5006424;28;20256;-74
2022/11/27 04:00:19;;;;;;;93.75;64.50;;;;;;;;;;5005898;28;20081;-76
2022/11/27 04:02:47;;;;;;;78.10;56.13;;;;;;;;;;4988893;28;20030;-73
2022/11/27 04:05:13;;;;;;;67.47;50.22;;;;;;;;;;5005969;28;20034;-73
2022/11/27 04:07:38;;;;;;;62.47;47.97;;;;;;;;;;4986021;28;20100;-75
2022/11/27 04:10:04;;;;;;;61.25;46.90;;;;;;;;;;5006073;28;20088;-72
2022/11/27 04:12:30;;;;;;;57.03;45.10;;;;;;;;;;5003546;28;20029;-76
2022/11/27 04:14:55;;;;;;;56.13;44.58;;;;;;;;;;4986163;28;20084;-76
2022/11/27 04:17:20;;;;;;;57.83;45.08;;;;;;;;;;5005140;28;20065;-76
2022/11/27 04:19:46;;;;;;;51.78;40.30;;;;;;;;;;5004246;28;20438;-75
2022/11/27 04:22:11;;;;;;;51.67;41.92;;;;;;;;;;5003004;28;20057;-75
2022/11/27 04:24:37;;;;;;;51.80;41.53;;;;;;;;;;5006621;28;20857;-75
2022/11/27 04:27:02;;;;;;;53.20;41.15;;;;;;;;;;5068830;28;20096;-77
2022/11/27 04:29:27;;;;;;;52.63;41.35;;;;;;;;;;5087004;28;20347;-74
2022/11/27 04:31:53;;;;;;;52.25;40.38;;;;;;;;;;5087262;28;20035;-76
2022/11/27 04:34:18;;;;;;;51.00;39.95;;;;;;;;;;5086707;28;20385;-75
2022/11/27 04:36:45;;;;;;;50.40;41.05;;;;;;;;;;5075443;28;20336;-74
2022/11/27 04:39:12;;;;;;;51.75;41.85;;;;;;;;;;5086662;28;20024;-75
2022/11/27 04:41:37;;;;;;;69.35;52.50;;;;;;;;;;5085413;28;20039;-74
2022/11/27 04:44:02;;;;;;;56.42;42.85;;;;;;;;;;5086734;28;20016;-73
2022/11/27 04:46:28;;;;;;;59.25;44.60;;;;;;;;;;5087375;28;20459;-74
2022/11/27 04:48:53;;;;;;;57.78;43.88;;;;;;;;;;5088978;28;20429;-76
2022/11/27 04:51:18;;;;;;;56.85;44.95;;;;;;;;;;5083907;28;20035;-75
2022/11/27 04:53:44;;;;;;;64.45;46.70;;;;;;;;;;5085495;28;20024;-75
2022/11/27 04:56:09;;;;;;;64.90;50.58;;;;;;;;;;5085474;28;20599;-76
2022/11/27 04:58:34;;;;;;;61.53;46.60;;;;;;;;;;5087095;28;20024;-75
2022/11/27 05:01:00;;;;;;;61.80;46.88;;;;;;;;;;5085525;28;20476;-74
2022/11/27 05:03:25;;;;;;;65.03;49.25;;;;;;;;;;5082416;28;20443;-74
2022/11/27 05:05:55;;;;;;;57.78;45.33;;;;;;;;;;5074776;28;20020;-74
2022/11/27 05:08:20;;;;;;;57.28;45.55;;;;;;;;;;5083359;28;20222;-74
2022/11/27 05:10:46;;;;;;;49.63;42.17;;;;;;;;;;5083375;28;20127;-75
2022/11/27 05:13:11;;;;;;;59.60;45.15;;;;;;;;;;5084309;28;20035;-74
2022/11/27 05:15:37;;;;;;;53.17;41.65;;;;;;;;;;5082609;28;20138;-74
2022/11/27 05:18:02;;;;;;;50.08;41.35;;;;;;;;;;5084117;28;20023;-74
2022/11/27 05:20:27;;;;;;;51.85;40.95;;;;;;;;;;5091449;28;20459;-74
2022/11/27 05:22:53;;;;;;;61.10;49.03;;;;;;;;;;5101913;27;20035;-76
2022/11/27 05:25:18;;;;;;;74.25;57.80;;;;;;;;;;5099975;27;20028;-74
2022/11/27 05:27:43;;;;;;;112.18;84.10;;;;;;;;;;5094947;27;20119;-75
2022/11/27 05:30:09;;;;;;;113.60;85.38;;;;;;;;;;5103245;27;20508;-77
2022/11/27 05:32:34;;;;;;;110.13;84.38;;;;;;;;;;5103516;27;20046;-74
2022/11/27 05:35:00;;;;;;;88.32;67.95;;;;;;;;;;5105977;27;20419;-73
2022/11/27 05:37:25;;;;;;;96.93;75.30;;;;;;;;;;5094447;27;20023;-74
2022/11/27 05:39:50;;;;;;;92.68;70.28;;;;;;;;;;5103764;27;20102;-74
2022/11/27 05:42:16;;;;;;;89.93;65.93;;;;;;;;;;5106045;27;20031;-74
2022/11/27 05:44:41;;;;;;;137.23;96.60;;;;;;;;;;5105827;27;20030;-75
2022/11/27 05:47:06;;;;;;;271.48;210.27;;;;;;;;;;5104792;27;20039;-74
2022/11/27 05:49:32;;;;;;;116.07;86.32;;;;;;;;;;5094982;27;20031;-75
2022/11/27 05:51:57;;;;;;;515.10;369.13;;;;;;;;;;5104209;27;20036;-76
2022/11/27 05:54:22;;;;;;;519.15;389.67;;;;;;;;;;5105981;27;20110;-74
2022/11/27 05:56:48;;;;;;;498.35;309.85;;;;;;;;;;5102200;27;20506;-74
2022/11/27 05:59:13;;;;;;;400.52;254.38;;;;;;;;;;5104904;27;20553;-75
2022/11/27 06:01:39;;;;;;;248.35;201.80;;;;;;;;;;5102945;27;20040;-74
2022/11/27 06:04:04;;;;;;;135.02;102.75;;;;;;;;;;5104455;27;20038;-73
2022/11/27 06:06:29;;;;;;;143.25;114.10;;;;;;;;;;5088262;27;20023;-73
2022/11/27 06:08:55;;;;;;;121.50;94.43;;;;;;;;;;5103850;27;20023;-75
2022/11/27 06:11:21;;;;;;;97.93;74.47;;;;;;;;;;5106437;27;20315;-74
2022/11/27 06:13:47;;;;;;;109.70;92.05;;;;;;;;;;5105072;27;20039;-75
2022/11/27 06:16:17;;;;;;;74.88;62.30;;;;;;;;;;5102767;27;20031;-74
2022/11/27 06:18:42;;;;;;;182.05;126.57;;;;;;;;;;5105364;27;20050;-73
2022/11/27 06:21:09;;;;;;;330.73;237.73;;;;;;;;;;5106011;27;20097;-75
2022/11/27 06:23:35;;;;;;;331.77;253.95;;;;;;;;;;5087254;28;20883;-74
2022/11/27 06:26:10;;;;;;;135.60;107.60;;;;;;;;;;5107298;28;20019;-73
2022/11/27 06:28:35;;;;;;;106.97;84.22;;;;;;;;;;5104329;28;20031;-73
2022/11/27 06:31:04;;;;;;;81.78;69.15;;;;;;;;;;5104658;28;20024;-75
2022/11/27 06:33:29;;;;;;;82.18;67.05;;;;;;;;;;5090421;28;20020;-74
2022/11/27 06:35:55;;;;;;;74.80;61.35;;;;;;;;;;5073074;28;20476;-75
2022/11/27 06:38:20;;;;;;;78.85;65.15;;;;;;;;;;5093838;27;20023;-74
2022/11/27 06:40:45;;;;;;;70.18;57.65;;;;;;;;;;5077750;27;20035;-74
2022/11/27 06:43:10;;;;;;;80.97;61.63;;;;;;;;;;5094782;27;20057;-74
2022/11/27 06:45:36;;;;;;;89.15;68.97;;;;;;;;;;5093860;27;20076;-72
2022/11/27 06:48:01;;;;;;;116.13;89.95;;;;;;;;;;5102060;27;20438;-72
2022/11/27 06:50:27;;;;;;;130.32;103.15;;;;;;;;;;5102100;27;20457;-72
2022/11/27 06:52:52;;;;;;;129.73;105.72;;;;;;;;;;5110710;27;20023;-74
2022/11/27 06:55:17;;;;;;;108.35;88.55;;;;;;;;;;5106883;27;20076;-73
2022/11/27 06:57:43;;;;;;;96.43;77.30;;;;;;;;;;5105947;27;20106;-75
2022/11/27 07:00:08;;;;;;;81.75;72.18;;;;;;;;;;5109935;27;20393;-73
2022/11/27 07:02:33;;;;;;;88.85;74.82;;;;;;;;;;5106512;27;20046;-72
2022/11/27 07:04:59;;;;;;;93.28;81.38;;;;;;;;;;5111116;27;20026;-73
2022/11/27 07:07:24;;;;;;;87.55;75.97;;;;;;;;;;5102646;27;20114;-71
2022/11/27 07:09:49;;;;;;;97.10;86.57;;;;;;;;;;5101548;27;20059;-74
2022/11/27 07:12:15;;;;;;;137.55;118.30;;;;;;;;;;5110115;27;20048;-75
2022/11/27 07:14:40;;;;;;;135.68;116.78;;;;;;;;;;5089754;27;20019;-72
2022/11/27 07:17:06;;;;;;;129.40;107.20;;;;;;;;;;5104917;27;20023;-76
2022/11/27 07:19:31;;;;;;;113.13;92.75;;;;;;;;;;5101352;27;20350;-76
2022/11/27 07:21:56;;;;;;;90.32;73.22;;;;;;;;;;5105952;27;20090;-74
2022/11/27 07:24:22;;;;;;;73.10;60.00;;;;;;;;;;5099351;27;20027;-77
2022/11/27 07:26:47;;;;;;;65.38;55.25;;;;;;;;;;5109422;27;20043;-72
2022/11/27 07:29:12;;;;;;;81.38;67.72;;;;;;;;;;5107508;27;20076;-74
2022/11/27 07:31:38;;;;;;;110.20;94.20;;;;;;;;;;5095656;27;20024;-72
2022/11/27 07:34:03;;;;;;;115.82;99.25;;;;;;;;;;5093252;27;20725;-74
2022/11/27 07:36:30;;;;;;;119.85;99.20;;;;;;;;;;5075359;27;20108;-74
2022/11/27 07:38:56;;;;;;;136.43;113.88;;;;;;;;;;5073936;28;20016;-76
2022/11/27 07:41:22;;;;;;;220.55;186.18;;;;;;;;;;5093555;27;20039;-77
2022/11/27 07:43:47;;;;;;;190.10;160.65;;;;;;;;;;5093260;27;20023;-74
2022/11/27 07:46:14;;;;;;;154.40;130.80;;;;;;;;;;5092698;27;20042;-73
2022/11/27 07:48:40;;;;;;;130.43;106.43;;;;;;;;;;5072618;28;20046;-74
2022/11/27 07:51:06;;;;;;;179.95;143.45;;;;;;;;;;5091626;27;20339;-73
2022/11/27 07:53:34;;;;;;;102.88;84.65;;;;;;;;;;5094069;27;20422;-72
2022/11/27 07:55:59;;;;;;;110.90;93.20;;;;;;;;;;5092513;27;20038;-73
2022/11/27 07:58:24;;;;;;;119.65;99.50;;;;;;;;;;5076039;27;20027;-74
2022/11/27 08:00:50;;;;;;;174.25;134.45;;;;;;;;;;5073913;28;20027;-73
2022/11/27 08:03:15;;;;;;;111.80;92.07;;;;;;;;;;5095981;27;20023;-73
2022/11/27 08:05:41;;;;;;;164.85;121.13;;;;;;;;;;5090267;27;20426;-76
2022/11/27 08:08:06;;;;;;;362.67;178.13;;;;;;;;;;5091824;27;20513;-74
2022/11/27 08:10:35;;;;;;;330.60;153.00;;;;;;;;;;5074470;27;20038;-75
2022/11/27 08:13:01;;;;;;;197.00;108.53;;;;;;;;;;5074226;28;20020;-75
2022/11/27 08:15:26;;;;;;;229.95;122.18;;;;;;;;;;5091974;27;20093;-73
2022/11/27 08:17:51;;;;;;;118.78;81.72;;;;;;;;;;5094236;27;20031;-75
2022/11/27 08:20:18;;;;;;;115.38;73.65;;;;;;;;;;5107056;27;21021;-75
2022/11/27 08:22:44;;;;;;;95.65;71.47;;;;;;;;;;5109960;27;20096;-75
2022/11/27 08:25:09;;;;;;;80.70;59.03;;;;;;;;;;5106633;27;21503;-77
2022/11/27 08:27:35;;;;;;;189.65;97.93;;;;;;;;;;5108665;27;20114;-75
2022/11/27 08:30:00;;;;;;;156.75;91.88;;;;;;;;;;5109626;27;20027;-76
2022/11/27 08:32:26;;;;;;;148.63;72.88;;;;;;;;;;5110675;27;20046;-77
2022/11/27 08:34:51;;;;;;;88.57;64.93;;;;;;;;;;5106528;27;20053;-74
2022/11/27 08:37:16;;;;;;;194.50;123.85;;;;;;;;;;5107889;27;20119;-74
2022/11/27 08:39:42;;;;;;;148.70;117.00;;;;;;;;;;5102864;27;20497;-73
2022/11/27 08:42:07;;;;;;;147.65;118.50;;;;;;;;;;5091192;27;20031;-71
2022/11/27 08:44:32;;;;;;;131.80;106.90;;;;;;;;;;5101786;27;20071;-73
2022/11/27 08:46:58;;;;;;;96.40;80.70;;;;;;;;;;5096650;27;20478;-73
2022/11/27 08:49:23;;;;;;;124.57;111.82;;;;;;;;;;5099664;27;20015;-74
2022/11/27 08:51:49;;;;;;;114.15;101.82;;;;;;;;;;5089781;27;20050;-76
2022/11/27 08:54:14;;;;;;;52.20;45.47;;;;;;;;;;5090844;27;23456;-74
2022/11/27 08:56:39;;;;;;;60.83;51.47;;;;;;;;;;5072402;28;20031;-75
2022/11/27 08:59:05;;;;;;;55.38;47.13;;;;;;;;;;5073305;27;20031;-71
2022/11/27 09:01:30;;;;;;;58.47;49.72;;;;;;;;;;5086583;27;20443;-71
2022/11/27 09:03:56;;;;;;;86.90;70.13;;;;;;;;;;5091275;27;20354;-70
2022/11/27 09:06:23;;;;;;;93.47;79.25;;;;;;;;;;5090284;27;20034;-71
2022/11/27 09:08:48;;;;;;;116.63;100.00;;;;;;;;;;5074036;27;20409;-71
2022/11/27 09:11:15;;;;;;;112.07;93.95;;;;;;;;;;5104063;27;20035;-72
2022/11/27 09:13:41;;;;;;;119.53;98.60;;;;;;;;;;5096159;27;20446;-70
2022/11/27 09:16:08;;;;;;;111.28;96.15;;;;;;;;;;5103073;27;20016;-71
2022/11/27 09:18:33;;;;;;;132.90;106.63;;;;;;;;;;5103085;27;20015;-71
2022/11/27 09:21:04;;;;;;;132.82;107.60;;;;;;;;;;5095163;27;20489;-71
2022/11/27 09:23:29;;;;;;;115.38;94.53;;;;;;;;;;5100826;27;20103;-73
2022/11/27 09:25:59;;;;;;;98.35;80.30;;;;;;;;;;5089914;27;20521;-72
2022/11/27 09:28:24;;;;;;;135.77;99.57;;;;;;;;;;5073919;27;20465;-72
2022/11/27 09:30:53;;;;;;;183.48;108.30;;;;;;;;;;5073851;27;20031;-71
2022/11/27 09:33:18;;;;;;;103.50;81.60;;;;;;;;;;5091088;27;20035;-72
2022/11/27 09:35:44;;;;;;;142.55;107.60;;;;;;;;;;5090570;27;20084;-73
2022/11/27 09:38:09;;;;;;;704.88;394.17;;;;;;;;;;5073384;28;20028;-72
2022/11/27 09:40:35;;;;;;;214.30;145.35;;;;;;;;;;5090332;27;20079;-73
2022/11/27 09:43:05;;;;;;;445.75;228.77;;;;;;;;;;5091713;27;20179;-72
2022/11/27 09:45:30;;;;;;;445.70;213.32;;;;;;;;;;5071426;27;20031;-71
2022/11/27 09:48:00;;;;;;;404.55;189.68;;;;;;;;;;5090102;27;20019;-73
2022/11/27 09:50:27;;;;;;;98.90;69.38;;;;;;;;;;5091537;27;20020;-70
2022/11/27 09:53:19;;;;;;;194.68;143.93;;;;;;;;;;5093832;27;20101;-73
2022/11/27 09:55:46;;;;;;;136.18;117.93;;;;;;;;;;4957536;28;20115;-72
2022/11/27 09:58:14;;;;;;;86.18;71.88;;;;;;;;;;4953754;28;20126;-74
2022/11/27 10:00:42;;;;;;;73.30;63.08;;;;;;;;;;4953843;28;21566;-71
2022/11/27 10:03:12;;;;;;;66.28;54.75;;;;;;;;;;4950359;28;20753;-72
2022/11/27 10:06:03;;;;;;;123.07;82.90;;;;;;;;;;4951849;28;20062;-72
2022/11/27 10:08:37;;;;;;;73.40;52.67;;;;;;;;;;4927446;28;20073;-73
2022/11/27 10:11:09;;;;;;;58.67;42.45;;;;;;;;;;4944631;28;20117;-71
2022/11/27 10:13:42;;;;;;;55.92;43.38;;;;;;;;;;4949719;28;20098;-72
2022/11/27 10:16:16;;;;;;;63.58;49.17;;;;;;;;;;4948092;28;20168;-72
2022/11/27 10:18:47;;;;;;;57.70;44.45;;;;;;;;;;4948595;28;20034;-72
2022/11/27 10:21:18;;;;;;;46.67;39.30;;;;;;;;;;4932502;28;20054;-72
2022/11/27 10:23:45;;;;;;;120.32;89.60;;;;;;;;;;4933337;28;20050;-73
2022/11/27 10:26:18;;;;;;;603.40;357.88;;;;;;;;;;4947832;28;20065;-72
2022/11/27 10:28:48;;;;;;;137.77;93.65;;;;;;;;;;4948644;28;20038;-74
2022/11/27 10:31:32;;;;;;;64.00;50.22;;;;;;;;;;4948730;28;20100;-72
2022/11/27 10:34:01;;;;;;;59.47;48.63;;;;;;;;;;4997626;28;20479;-73
2022/11/27 10:36:33;;;;;;;64.07;53.00;;;;;;;;;;4997228;28;20449;-72
2022/11/27 10:38:59;;;;;;;68.97;54.47;;;;;;;;;;4997349;28;20075;-72
2022/11/27 10:41:33;;;;;;;62.42;48.75;;;;;;;;;;5000077;28;20043;-72
2022/11/27 10:44:02;;;;;;;51.90;41.42;;;;;;;;;;4998911;28;20091;-73
2022/11/27 10:46:30;;;;;;;58.35;46.75;;;;;;;;;;5087761;28;20458;-72
2022/11/27 10:48:56;;;;;;;58.65;48.10;;;;;;;;;;5088627;28;20039;-73
2022/11/27 10:51:24;;;;;;;72.20;58.60;;;;;;;;;;5085421;28;20390;-72
2022/11/27 10:53:51;;;;;;;106.10;74.97;;;;;;;;;;5089098;28;20072;-71
2022/11/27 10:56:20;;;;;;;287.85;214.05;;;;;;;;;;5089416;28;20019;-71
2022/11/27 10:58:49;;;;;;;96.75;74.97;;;;;;;;;;5090593;28;21011;-71
2022/11/27 11:01:15;;;;;;;66.88;55.03;;;;;;;;;;5087211;28;20073;-73
2022/11/27 11:03:41;;;;;;;54.40;44.08;;;;;;;;;;5087639;28;20035;-72
2022/11/27 11:06:15;;;;;;;81.53;54.97;;;;;;;;;;5090929;28;20031;-72
2022/11/27 11:08:41;;;;;;;58.25;47.88;;;;;;;;;;5089536;28;20057;-73
2022/11/27 11:11:07;;;;;;;64.88;51.90;;;;;;;;;;5091193;28;20036;-72
2022/11/27 11:13:42;;;;;;;86.03;70.88;;;;;;;;;;5091160;28;20754;-72
2022/11/27 11:16:10;;;;;;;58.13;48.17;;;;;;;;;;5090012;28;20023;-72
2022/11/27 11:18:43;;;;;;;47.25;39.47;;;;;;;;;;5090560;28;20062;-71
2022/11/27 11:21:14;;;;;;;50.58;41.72;;;;;;;;;;5088654;28;20135;-72
2022/11/27 11:23:39;;;;;;;54.05;43.78;;;;;;;;;;5089322;27;20702;-73
2022/11/27 11:26:14;;;;;;;84.72;63.63;;;;;;;;;;5090886;27;20026;-74
2022/11/27 11:28:46;;;;;;;73.07;58.15;;;;;;;;;;5092297;27;20026;-73
2022/11/27 11:31:13;;;;;;;67.53;52.33;;;;;;;;;;5093858;27;20031;-72
2022/11/27 11:34:00;;;;;;;60.13;46.95;;;;;;;;;;5091653;27;20032;-75
2022/11/27 11:36:25;;;;;;;92.65;76.10;;;;;;;;;;5091957;27;20039;-73
2022/11/27 11:38:52;;;;;;;107.88;72.50;;;;;;;;;;5105155;27;20026;-72
2022/11/27 11:41:17;;;;;;;90.32;69.72;;;;;;;;;;5101904;27;20108;-73
2022/11/27 11:43:57;;;;;;;65.15;49.97;;;;;;;;;;5075082;28;20128;-72
2022/11/27 11:46:25;;;;;;;61.95;48.38;;;;;;;;;;5077183;28;20043;-72
2022/11/27 11:49:05;;;;;;;80.32;53.63;;;;;;;;;;5076549;27;20358;-71
2022/11/27 11:51:47;;;;;;;64.53;50.83;;;;;;;;;;5090626;27;20020;-73
2022/11/27 11:54:36;;;;;;;59.30;47.45;;;;;;;;;;5092248;27;22244;-72
2022/11/27 11:57:05;;;;;;;61.45;47.70;;;;;;;;;;5063887;27;20043;-72
2022/11/27 11:59:33;;;;;;;51.20;40.27;;;;;;;;;;5102741;27;20039;-72
2022/11/27 12:02:17;;;;;;;71.20;58.05;;;;;;;;;;5106142;27;20276;-73
2022/11/27 12:05:02;;;;;;;85.53;74.38;;;;;;;;;;5094337;27;20024;-72
2022/11/27 12:07:27;;;;;;;80.97;64.60;;;;;;;;;;5088673;27;20034;-71
2022/11/27 12:09:59;;;;;;;83.75;65.43;;;;;;;;;;5082383;27;20031;-71
2022/11/27 12:12:27;;;;;;;77.97;65.22;;;;;;;;;;5107265;27;20025;-73
2022/11/27 12:15:01;;;;;;;119.63;78.85;;;;;;;;;;5103001;27;20023;-74
2022/11/27 12:17:48;;;;;;;117.13;85.75;;;;;;;;;;5089805;27;20054;-75
2022/11/27 12:20:25;;;;;;;59.22;47.22;;;;;;;;;;5091690;27;20040;-75
2022/11/27 12:23:09;;;;;;;49.90;40.00;;;;;;;;;;5093050;27;20046;-74
2022/11/27 12:25:44;;;;;;;56.05;45.03;;;;;;;;;;5091996;27;20054;-74
2022/11/27 12:28:11;;;;;;;47.63;39.40;;;;;;;;;;5093015;27;20022;-72
2022/11/27 12:30:45;;;;;;;49.72;40.90;;;;;;;;;;5092334;27;20037;-73
2022/11/27 12:33:32;;;;;;;119.68;78.53;;;;;;;;;;5093283;27;20031;-74
2022/11/27 12:36:00;;;;;;;94.63;62.05;;;;;;;;;;5092971;27;20048;-71
2022/11/27 12:38:29;;;;;;;133.52;86.00;;;;;;;;;;5073810;27;20339;-72
2022/11/27 12:41:13;;;;;;;104.13;70.32;;;;;;;;;;5091182;27;20040;-73
2022/11/27 12:43:45;;;;;;;151.90;91.95;;;;;;;;;;5090911;27;20031;-75
2022/11/27 12:46:18;;;;;;;64.38;47.78;;;;;;;;;;5069918;28;20076;-71
2022/11/27 12:48:50;;;;;;;63.78;46.22;;;;;;;;;;5092215;27;20034;-74
2022/11/27 12:51:30;;;;;;;72.55;48.63;;;;;;;;;;5093141;27;20347;-72
2022/11/27 12:53:55;;;;;;;;;;;;;;;;;;5084584;27;20059;-71
2022/11/27 12:56:25;;;;;;;52.33;38.87;;;;;;;;;;5090717;27;19979;-71
2022/11/27 12:58:53;;;;;;;73.03;49.58;;;;;;;;;;5073549;28;20877;-71
2022/11/27 13:01:23;;;;;;;65.68;46.38;;;;;;;;;;5090037;27;20043;-73
2022/11/27 13:03:54;;;;;;;61.10;36.72;;;;;;;;;;5093305;27;20385;-73
2022/11/27 13:06:22;;;;;;;51.55;31.70;;;;;;;;;;5090613;27;20024;-75
2022/11/27 13:08:56;;;;;;;39.88;31.40;;;;;;;;;;5090389;27;20111;-72
2022/11/27 13:11:29;;;;;;;68.90;59.95;;;;;;;;;;5093394;27;20039;-73
2022/11/27 13:14:06;;;;;;;64.57;48.20;;;;;;;;;;5073643;27;20303;-74
2022/11/27 13:16:40;;;;;;;55.28;47.40;;;;;;;;;;5072831;27;20031;-74
2022/11/27 13:19:27;;;;;;;122.05;90.15;;;;;;;;;;5090410;27;20019;-72
2022/11/27 13:21:55;;;;;;;102.25;76.53;;;;;;;;;;5091044;27;20047;-72
2022/11/27 13:24:20;;;;;;;101.10;74.15;;;;;;;;;;5091178;27;20026;-73
2022/11/27 13:26:59;;;;;;;65.38;56.55;;;;;;;;;;5079888;28;20023;-75
2022/11/27 13:29:30;;;;;;;51.30;41.88;;;;;;;;;;5104216;27;20020;-73
2022/11/27 13:31:57;;;;;;;54.15;44.90;;;;;;;;;;5106692;27;20036;-71
2022/11/27 13:34:24;;;;;;;67.13;58.10;;;;;;;;;;5104614;27;20024;-75
2022/11/27 13:36:57;;;;;;;81.03;72.13;;;;;;;;;;5106457;27;20080;-74
2022/11/27 13:39:24;;;;;;;83.45;68.20;;;;;;;;;;5105839;27;20024;-72
2022/11/27 13:41:59;;;;;;;56.70;46.95;;;;;;;;;;5105530;27;20062;-76
2022/11/27 13:44:25;;;;;;;65.10;51.60;;;;;;;;;;5105451;27;20384;-72
2022/11/27 13:46:53;;;;;;;73.43;64.25;;;;;;;;;;5102373;27;20431;-71
2022/11/27 13:49:27;;;;;;;136.07;109.10;;;;;;;;;;5091528;27;20066;-72
2022/11/27 13:52:02;;;;;;;121.90;94.53;;;;;;;;;;5090452;27;20063;-70
2022/11/27 13:54:28;;;;;;;54.78;43.88;;;;;;;;;;5091823;27;20023;-72
2022/11/27 13:56:53;;;;;;;36.92;32.35;;;;;;;;;;5094217;27;20023;-74
2022/11/27 13:59:20;;;;;;;28.17;25.02;;;;;;;;;;5093126;27;20023;-75
2022/11/27 14:02:05;;;;;;;36.88;29.77;;;;;;;;;;5075167;27;20028;-70
2022/11/27 14:04:32;;;;;;;43.72;36.28;;;;;;;;;;5072731;28;20082;-70
2022/11/27 14:06:57;;;;;;;102.80;69.82;;;;;;;;;;5091233;27;20027;-73
2022/11/27 14:09:37;;;;;;;69.45;48.28;;;;;;;;;;5098133;27;20023;-71
2022/11/27 14:12:24;;;;;;;60.78;44.08;;;;;;;;;;5101268;27;20112;-69
2022/11/27 14:14:57;;;;;;;42.13;34.17;;;;;;;;;;5103513;27;20027;-71